Time;durP1;ratioP1;P1;durP2;ratioP2;P2;SDS_P1;SDS_P2;PMS_P1;PMS_P2;Temp;Humidity;BMP_temperature;BMP_pressure;BME280_temperature;BME280_humidity;BME280_pressure;Samples;Min_cycle;Max_cycle;Signal;HPM_P1;HPM_P2
2021/07/30 00:01:50;;;;;;;16.10;5.82;;;;;;;;;;4374992;32;20237;-86
2021/07/30 00:04:16;;;;;;;14.52;5.28;;;;;;;;;;4372377;32;20252;-89
2021/07/30 00:06:41;;;;;;;18.08;5.85;;;;;;;;;;4349902;32;20234;-83
2021/07/30 00:09:06;;;;;;;19.08;5.97;;;;;;;;;;4345514;33;20323;-83
2021/07/30 00:11:32;;;;;;;22.40;5.72;;;;;;;;;;4346040;32;20208;-82
2021/07/30 00:13:57;;;;;;;17.23;6.07;;;;;;;;;;4345761;32;20266;-82
2021/07/30 00:16:23;;;;;;;17.35;5.55;;;;;;;;;;4345558;32;20191;-83
2021/07/30 00:18:48;;;;;;;18.45;5.57;;;;;;;;;;4345282;32;20241;-85
2021/07/30 00:21:14;;;;;;;26.52;5.95;;;;;;;;;;4345247;32;20659;-83
2021/07/30 00:23:39;;;;;;;22.10;5.37;;;;;;;;;;4345335;32;20223;-84
2021/07/30 00:26:05;;;;;;;13.95;5.45;;;;;;;;;;4348421;32;20332;-83
2021/07/30 00:28:30;;;;;;;21.77;6.68;;;;;;;;;;4360170;32;20215;-82
2021/07/30 00:30:55;;;;;;;11.43;5.15;;;;;;;;;;4359024;32;20199;-82
2021/07/30 00:33:21;;;;;;;21.62;5.03;;;;;;;;;;4346626;32;20274;-83
2021/07/30 00:35:46;;;;;;;24.65;6.07;;;;;;;;;;4360008;32;20331;-83
2021/07/30 00:38:12;;;;;;;21.37;5.12;;;;;;;;;;4360418;32;20244;-83
2021/07/30 00:40:37;;;;;;;16.85;5.53;;;;;;;;;;4360181;32;20237;-82
2021/07/30 00:43:05;;;;;;;15.98;4.50;;;;;;;;;;4360273;32;20236;-82
2021/07/30 00:45:31;;;;;;;14.02;5.78;;;;;;;;;;4358284;32;20250;-82
2021/07/30 00:47:57;;;;;;;20.95;5.95;;;;;;;;;;4359523;32;20324;-82
2021/07/30 00:50:23;;;;;;;17.85;5.00;;;;;;;;;;4360076;32;20226;-84
2021/07/30 00:52:50;;;;;;;25.40;6.87;;;;;;;;;;4359785;32;20555;-83
2021/07/30 00:55:15;;;;;;;12.48;4.78;;;;;;;;;;4360010;32;20202;-82
2021/07/30 00:57:43;;;;;;;20.02;5.85;;;;;;;;;;4360033;32;20666;-83
2021/07/30 01:00:10;;;;;;;21.80;5.37;;;;;;;;;;4359531;32;20214;-82
2021/07/30 01:02:35;;;;;;;28.70;6.32;;;;;;;;;;4359180;32;20285;-84
2021/07/30 01:05:01;;;;;;;14.63;5.75;;;;;;;;;;4359693;32;20206;-82
2021/07/30 01:07:27;;;;;;;19.83;5.65;;;;;;;;;;4358760;32;20301;-87
2021/07/30 01:09:53;;;;;;;19.92;5.53;;;;;;;;;;4359015;32;20195;-82
2021/07/30 01:12:19;;;;;;;20.23;7.75;;;;;;;;;;4359603;32;20241;-90
2021/07/30 01:14:44;;;;;;;27.25;8.07;;;;;;;;;;4359909;32;20211;-82
2021/07/30 01:17:10;;;;;;;16.35;5.80;;;;;;;;;;4359654;32;20543;-81
2021/07/30 01:19:35;;;;;;;21.92;6.93;;;;;;;;;;4360046;32;20210;-82
2021/07/30 01:22:12;;;;;;;20.37;5.50;;;;;;;;;;4359588;32;20210;-82
2021/07/30 01:24:38;;;;;;;18.15;5.90;;;;;;;;;;4359497;32;20221;-81
2021/07/30 01:27:03;;;;;;;20.00;5.57;;;;;;;;;;4359535;32;20316;-81
2021/07/30 01:29:29;;;;;;;11.23;4.75;;;;;;;;;;4360943;32;20704;-88
2021/07/30 01:31:55;;;;;;;20.15;5.22;;;;;;;;;;4352695;32;20195;-82
2021/07/30 01:34:21;;;;;;;14.80;5.53;;;;;;;;;;4346466;32;20252;-82
2021/07/30 01:36:47;;;;;;;14.23;5.22;;;;;;;;;;4343390;33;20337;-85
2021/07/30 01:39:12;;;;;;;18.58;6.05;;;;;;;;;;4343992;33;20191;-83
2021/07/30 01:41:39;;;;;;;13.00;5.62;;;;;;;;;;4344328;32;20198;-83
2021/07/30 01:44:05;;;;;;;21.85;5.65;;;;;;;;;;4344784;33;20315;-83
2021/07/30 01:46:30;;;;;;;13.55;5.62;;;;;;;;;;4344095;33;20191;-83
2021/07/30 01:48:56;;;;;;;16.33;6.07;;;;;;;;;;4343073;33;20258;-83
2021/07/30 01:51:21;;;;;;;19.85;5.03;;;;;;;;;;4344192;32;20191;-84
2021/07/30 01:53:47;;;;;;;9.55;4.93;;;;;;;;;;4343943;33;20311;-85
2021/07/30 01:56:12;;;;;;;18.92;5.25;;;;;;;;;;4342492;33;20231;-82
2021/07/30 01:58:37;;;;;;;24.23;7.03;;;;;;;;;;4343863;33;20219;-85
2021/07/30 02:01:03;;;;;;;19.05;5.20;;;;;;;;;;4355520;33;20440;-83
2021/07/30 02:03:29;;;;;;;16.95;5.10;;;;;;;;;;4343950;33;20227;-83
2021/07/30 02:05:54;;;;;;;21.33;6.12;;;;;;;;;;4350020;33;20255;-86
2021/07/30 02:08:20;;;;;;;23.92;4.87;;;;;;;;;;4359350;33;20219;-83
2021/07/30 02:10:45;;;;;;;14.10;5.62;;;;;;;;;;4370231;32;20245;-83
2021/07/30 02:15:54;;;;;;;13.15;5.35;;;;;;;;;;4358839;33;20285;-83
2021/07/30 02:18:20;;;;;;;22.23;5.65;;;;;;;;;;4358706;32;20595;-83
2021/07/30 02:20:46;;;;;;;11.98;4.95;;;;;;;;;;4358734;32;20611;-83
2021/07/30 02:23:11;;;;;;;15.40;5.20;;;;;;;;;;4358785;32;20206;-83
2021/07/30 02:25:37;;;;;;;16.00;6.37;;;;;;;;;;4358126;32;20296;-84
2021/07/30 02:28:02;;;;;;;20.77;6.53;;;;;;;;;;4359274;32;20245;-82
2021/07/30 02:30:28;;;;;;;19.87;6.25;;;;;;;;;;4358852;32;20190;-84
2021/07/30 02:32:53;;;;;;;24.08;6.60;;;;;;;;;;4345231;32;20215;-82
2021/07/30 02:35:19;;;;;;;18.70;5.60;;;;;;;;;;4344231;33;20202;-83
2021/07/30 02:37:44;;;;;;;12.93;5.43;;;;;;;;;;4344256;33;20219;-83
2021/07/30 02:40:10;;;;;;;11.02;4.87;;;;;;;;;;4343940;33;20226;-83
2021/07/30 02:42:35;;;;;;;14.75;5.47;;;;;;;;;;4342296;33;20230;-84
2021/07/30 02:45:01;;;;;;;12.48;5.32;;;;;;;;;;4343528;33;20521;-84
2021/07/30 02:47:27;;;;;;;21.83;4.82;;;;;;;;;;4343819;33;20708;-84
2021/07/30 02:49:52;;;;;;;13.10;5.68;;;;;;;;;;4343926;33;20202;-84
2021/07/30 02:52:17;;;;;;;18.30;5.45;;;;;;;;;;4343454;33;20211;-82
2021/07/30 02:54:43;;;;;;;13.90;5.43;;;;;;;;;;4343222;33;20222;-84
2021/07/30 02:57:08;;;;;;;20.75;6.18;;;;;;;;;;4343406;33;20274;-83
2021/07/30 02:59:34;;;;;;;19.55;5.62;;;;;;;;;;4365818;32;20194;-82
2021/07/30 03:02:00;;;;;;;10.60;5.25;;;;;;;;;;4372843;32;20268;-84
2021/07/30 03:04:26;;;;;;;15.32;5.90;;;;;;;;;;4373550;32;20677;-85
2021/07/30 03:06:51;;;;;;;20.37;6.95;;;;;;;;;;4368364;32;20215;-86
2021/07/30 03:09:17;;;;;;;14.50;4.75;;;;;;;;;;4373464;32;20246;-85
2021/07/30 03:11:42;;;;;;;19.58;6.70;;;;;;;;;;4375959;32;20198;-82
2021/07/30 03:14:08;;;;;;;14.27;5.15;;;;;;;;;;4375961;32;20209;-83
2021/07/30 03:16:33;;;;;;;14.13;5.30;;;;;;;;;;4375235;32;20195;-83
2021/07/30 03:18:59;;;;;;;19.20;5.75;;;;;;;;;;4374641;32;20222;-83
2021/07/30 03:21:24;;;;;;;20.00;5.72;;;;;;;;;;4375869;32;20270;-83
2021/07/30 03:23:49;;;;;;;11.45;5.95;;;;;;;;;;4374606;32;20674;-82
2021/07/30 03:26:15;;;;;;;15.32;5.55;;;;;;;;;;4387580;32;20612;-83
2021/07/30 03:28:40;;;;;;;12.77;5.12;;;;;;;;;;4375778;32;20552;-82
2021/07/30 03:31:06;;;;;;;19.17;7.97;;;;;;;;;;4373761;32;20555;-83
2021/07/30 03:33:31;;;;;;;33.40;9.23;;;;;;;;;;4372287;32;20295;-83
2021/07/30 03:35:57;;;;;;;21.35;7.80;;;;;;;;;;4387202;32;20310;-83
2021/07/30 03:38:22;;;;;;;15.25;5.70;;;;;;;;;;4375521;32;20202;-83
2021/07/30 03:40:47;;;;;;;18.02;6.22;;;;;;;;;;4374434;32;20606;-83
2021/07/30 03:43:13;;;;;;;20.20;6.32;;;;;;;;;;4376134;32;20214;-84
2021/07/30 03:45:38;;;;;;;19.75;7.07;;;;;;;;;;4375379;32;20548;-86
2021/07/30 03:48:04;;;;;;;21.50;6.82;;;;;;;;;;4374080;32;20595;-82
2021/07/30 03:50:30;;;;;;;14.82;6.03;;;;;;;;;;4375032;32;20260;-85
2021/07/30 03:53:00;;;;;;;10.68;5.25;;;;;;;;;;4374151;32;20627;-83
2021/07/30 03:55:25;;;;;;;23.23;6.93;;;;;;;;;;4374450;32;20194;-83
2021/07/30 03:57:51;;;;;;;24.17;6.45;;;;;;;;;;4375174;32;20403;-83
2021/07/30 04:00:16;;;;;;;17.02;6.90;;;;;;;;;;4386992;32;20233;-83
2021/07/30 04:02:42;;;;;;;13.27;6.07;;;;;;;;;;4374829;32;20234;-82
2021/07/30 04:05:08;;;;;;;13.45;5.82;;;;;;;;;;4374366;32;20269;-83
2021/07/30 04:07:33;;;;;;;19.20;6.65;;;;;;;;;;4359160;32;20210;-83
2021/07/30 04:09:59;;;;;;;14.93;6.32;;;;;;;;;;4360469;32;20182;-83
2021/07/30 04:12:24;;;;;;;24.08;7.20;;;;;;;;;;4360122;32;20210;-83
2021/07/30 04:14:50;;;;;;;28.80;6.75;;;;;;;;;;4360549;32;20613;-86
2021/07/30 04:17:15;;;;;;;21.30;5.93;;;;;;;;;;4360215;32;20219;-83
2021/07/30 04:19:43;;;;;;;17.92;7.32;;;;;;;;;;4359625;32;20191;-82
2021/07/30 04:22:11;;;;;;;23.02;7.05;;;;;;;;;;4359266;32;20249;-82
2021/07/30 04:24:36;;;;;;;25.30;7.20;;;;;;;;;;4359494;32;20215;-83
2021/07/30 04:27:02;;;;;;;12.60;7.65;;;;;;;;;;4358725;32;20278;-83
2021/07/30 04:29:28;;;;;;;28.27;7.32;;;;;;;;;;4360009;32;20281;-83
2021/07/30 04:31:53;;;;;;;18.70;6.95;;;;;;;;;;4359307;32;20264;-83
2021/07/30 04:34:19;;;;;;;21.95;6.97;;;;;;;;;;4361335;32;20194;-82
2021/07/30 04:36:44;;;;;;;22.35;6.70;;;;;;;;;;4360197;32;20194;-84
2021/07/30 04:39:10;;;;;;;27.92;15.68;;;;;;;;;;4359948;32;20572;-83
2021/07/30 04:41:35;;;;;;;60.50;34.15;;;;;;;;;;4360039;32;20202;-83
2021/07/30 04:44:01;;;;;;;70.72;44.63;;;;;;;;;;4359820;32;20261;-86
2021/07/30 04:46:26;;;;;;;71.60;40.88;;;;;;;;;;4359274;32;20344;-82
2021/07/30 04:48:52;;;;;;;51.10;32.60;;;;;;;;;;4359925;32;20222;-82
2021/07/30 04:51:18;;;;;;;47.15;26.87;;;;;;;;;;4371310;32;20206;-84
2021/07/30 04:53:46;;;;;;;41.50;23.48;;;;;;;;;;4359613;32;20249;-82
2021/07/30 04:56:20;;;;;;;46.00;21.58;;;;;;;;;;4359010;32;20350;-82
2021/07/30 04:58:46;;;;;;;33.30;19.27;;;;;;;;;;4360372;32;20320;-82
2021/07/30 05:01:12;;;;;;;40.63;21.85;;;;;;;;;;4361591;32;20709;-82
2021/07/30 05:03:37;;;;;;;41.90;21.58;;;;;;;;;;4364043;32;20290;-82
2021/07/30 05:06:16;;;;;;;36.25;20.15;;;;;;;;;;4364095;32;20195;-82
2021/07/30 05:08:42;;;;;;;47.10;19.70;;;;;;;;;;4368410;32;20616;-81
2021/07/30 05:11:08;;;;;;;41.53;17.40;;;;;;;;;;4374579;32;20234;-85
2021/07/30 05:13:34;;;;;;;27.80;11.45;;;;;;;;;;4373437;32;20230;-82
2021/07/30 05:16:16;;;;;;;24.05;11.38;;;;;;;;;;4373652;32;20187;-82
2021/07/30 05:18:41;;;;;;;41.90;10.55;;;;;;;;;;4360964;32;20264;-81
2021/07/30 05:21:09;;;;;;;22.23;9.32;;;;;;;;;;4359443;32;20277;-82
2021/07/30 05:23:35;;;;;;;27.55;12.07;;;;;;;;;;4357827;32;20230;-84
2021/07/30 05:26:01;;;;;;;38.10;13.65;;;;;;;;;;4358947;32;20754;-82
2021/07/30 05:28:28;;;;;;;25.02;12.43;;;;;;;;;;4358897;32;20249;-82
2021/07/30 05:30:55;;;;;;;28.85;10.52;;;;;;;;;;4358900;32;20202;-80
2021/07/30 05:33:20;;;;;;;27.85;11.10;;;;;;;;;;4358220;32;20218;-82
2021/07/30 05:35:46;;;;;;;24.33;10.93;;;;;;;;;;4359264;32;20600;-83
2021/07/30 05:38:12;;;;;;;23.27;9.27;;;;;;;;;;4360065;32;20663;-84
2021/07/30 05:40:37;;;;;;;43.80;9.45;;;;;;;;;;4356352;32;20277;-84
2021/07/30 05:43:03;;;;;;;17.08;7.78;;;;;;;;;;4358871;32;20207;-82
2021/07/30 05:45:28;;;;;;;17.95;7.20;;;;;;;;;;4358494;32;20269;-82
2021/07/30 05:47:53;;;;;;;21.08;8.07;;;;;;;;;;4359028;32;20843;-82
2021/07/30 05:50:19;;;;;;;29.15;7.20;;;;;;;;;;4360163;32;20190;-81
2021/07/30 05:52:44;;;;;;;20.17;6.47;;;;;;;;;;4359054;32;20249;-82
2021/07/30 05:55:10;;;;;;;28.20;7.37;;;;;;;;;;4359288;32;20355;-82
2021/07/30 05:57:35;;;;;;;23.10;6.80;;;;;;;;;;4358399;32;20237;-79
2021/07/30 06:00:03;;;;;;;21.17;7.50;;;;;;;;;;4357593;32;20202;-82
2021/07/30 06:02:28;;;;;;;16.70;6.53;;;;;;;;;;4348826;32;20265;-80
2021/07/30 06:04:54;;;;;;;22.05;7.93;;;;;;;;;;4354101;32;20235;-81
2021/07/30 06:07:19;;;;;;;18.73;6.35;;;;;;;;;;4354471;32;20280;-80
2021/07/30 06:09:45;;;;;;;16.10;6.22;;;;;;;;;;4350629;32;20849;-81
2021/07/30 06:12:10;;;;;;;15.82;5.90;;;;;;;;;;4344328;33;20290;-80
2021/07/30 06:14:35;;;;;;;28.73;6.75;;;;;;;;;;4342461;32;20230;-80
2021/07/30 06:17:01;;;;;;;22.60;5.53;;;;;;;;;;4344726;33;20524;-80
2021/07/30 06:19:27;;;;;;;20.58;7.70;;;;;;;;;;4364491;32;20527;-80
2021/07/30 06:21:52;;;;;;;17.25;6.37;;;;;;;;;;4372542;32;20234;-80
2021/07/30 06:24:17;;;;;;;17.60;6.75;;;;;;;;;;4385381;32;20635;-81
2021/07/30 06:26:43;;;;;;;14.27;6.82;;;;;;;;;;4373694;32;20400;-81
2021/07/30 06:29:08;;;;;;;18.23;5.60;;;;;;;;;;4373885;32;20252;-81
2021/07/30 06:31:34;;;;;;;16.70;7.72;;;;;;;;;;4368399;32;20202;-80
2021/07/30 06:33:59;;;;;;;18.62;6.45;;;;;;;;;;4370232;32;20272;-81
2021/07/30 06:36:25;;;;;;;10.77;5.68;;;;;;;;;;4359699;32;20267;-79
2021/07/30 06:38:50;;;;;;;21.25;6.87;;;;;;;;;;4374414;32;20210;-80
2021/07/30 06:41:17;;;;;;;13.40;6.28;;;;;;;;;;4370262;32;20292;-80
2021/07/30 06:43:43;;;;;;;20.80;5.90;;;;;;;;;;4358351;32;20683;-80
2021/07/30 06:46:08;;;;;;;17.83;6.43;;;;;;;;;;4361480;32;20218;-81
2021/07/30 06:48:34;;;;;;;14.52;7.22;;;;;;;;;;4361866;32;20317;-77
2021/07/30 06:50:59;;;;;;;18.77;6.97;;;;;;;;;;4361177;32;20207;-84
2021/07/30 06:53:25;;;;;;;15.95;6.07;;;;;;;;;;4361630;32;20297;-83
2021/07/30 06:55:50;;;;;;;20.00;7.28;;;;;;;;;;4362026;32;20223;-82
2021/07/30 06:58:16;;;;;;;16.17;6.45;;;;;;;;;;4363260;32;20236;-86
2021/07/30 07:00:41;;;;;;;15.63;6.55;;;;;;;;;;4361935;32;20214;-81
2021/07/30 07:03:06;;;;;;;15.25;7.18;;;;;;;;;;4362016;32;20285;-82
2021/07/30 07:05:33;;;;;;;17.35;6.80;;;;;;;;;;4369991;32;20260;-81
2021/07/30 07:07:59;;;;;;;20.52;7.40;;;;;;;;;;4375918;32;20295;-82
2021/07/30 07:10:24;;;;;;;21.70;6.90;;;;;;;;;;4362313;32;20203;-82
2021/07/30 07:12:50;;;;;;;18.98;6.55;;;;;;;;;;4361336;32;20223;-82
2021/07/30 07:15:15;;;;;;;17.90;7.32;;;;;;;;;;4362011;32;20283;-82
2021/07/30 07:17:41;;;;;;;18.75;6.37;;;;;;;;;;4361680;32;20226;-82
2021/07/30 07:20:07;;;;;;;19.58;6.47;;;;;;;;;;4372842;32;20584;-83
2021/07/30 07:22:32;;;;;;;17.25;6.80;;;;;;;;;;4361638;32;20237;-83
2021/07/30 07:24:58;;;;;;;21.33;7.12;;;;;;;;;;4361292;32;20218;-83
2021/07/30 07:27:23;;;;;;;21.17;6.07;;;;;;;;;;4372347;32;20242;-82
2021/07/30 07:29:49;;;;;;;18.30;5.68;;;;;;;;;;4357495;32;20319;-83
2021/07/30 07:32:14;;;;;;;19.00;8.35;;;;;;;;;;4351643;32;20281;-79
2021/07/30 07:34:40;;;;;;;19.05;7.95;;;;;;;;;;4372328;32;20673;-81
2021/07/30 07:37:05;;;;;;;25.15;6.70;;;;;;;;;;4352919;32;20992;-83
2021/07/30 07:39:32;;;;;;;19.35;6.57;;;;;;;;;;4357804;32;20212;-82
2021/07/30 07:41:57;;;;;;;17.20;6.68;;;;;;;;;;4346050;33;20366;-83
2021/07/30 07:44:25;;;;;;;14.87;6.62;;;;;;;;;;4351973;32;20261;-84
2021/07/30 07:46:51;;;;;;;19.65;7.45;;;;;;;;;;4359741;32;20566;-80
2021/07/30 07:49:16;;;;;;;13.80;6.12;;;;;;;;;;4360272;32;20203;-81
2021/07/30 07:51:42;;;;;;;16.50;5.72;;;;;;;;;;4359341;32;20207;-81
2021/07/30 07:54:07;;;;;;;27.23;6.35;;;;;;;;;;4356277;32;21871;-80
2021/07/30 07:56:32;;;;;;;14.80;5.47;;;;;;;;;;4354937;32;20662;-81
2021/07/30 07:58:58;;;;;;;20.83;6.45;;;;;;;;;;4358841;32;20253;-80
2021/07/30 08:01:24;;;;;;;17.20;6.75;;;;;;;;;;4359878;32;20222;-79
2021/07/30 08:03:49;;;;;;;25.42;6.87;;;;;;;;;;4359951;32;20283;-77
2021/07/30 08:06:19;;;;;;;22.83;7.53;;;;;;;;;;4359457;32;20544;-80
2021/07/30 08:08:45;;;;;;;20.20;6.97;;;;;;;;;;4359055;32;20285;-83
2021/07/30 08:11:11;;;;;;;12.50;5.57;;;;;;;;;;4358708;32;20701;-81
2021/07/30 08:13:37;;;;;;;22.52;6.18;;;;;;;;;;4359720;32;20226;-83
2021/07/30 08:16:03;;;;;;;17.20;5.97;;;;;;;;;;4359910;32;20275;-81
2021/07/30 08:18:28;;;;;;;21.00;6.30;;;;;;;;;;4359236;32;20312;-83
2021/07/30 08:20:54;;;;;;;21.85;6.90;;;;;;;;;;4357348;32;20261;-83
2021/07/30 08:23:19;;;;;;;18.98;7.18;;;;;;;;;;4357399;32;20241;-83
2021/07/30 08:25:44;;;;;;;20.95;6.35;;;;;;;;;;4360652;32;20252;-85
2021/07/30 08:28:10;;;;;;;14.93;6.80;;;;;;;;;;4360189;32;20254;-78
2021/07/30 08:30:35;;;;;;;13.88;6.70;;;;;;;;;;4358920;32;20191;-83
2021/07/30 08:33:01;;;;;;;13.57;6.50;;;;;;;;;;4358765;32;20233;-80
2021/07/30 08:35:26;;;;;;;25.48;6.50;;;;;;;;;;4360646;32;20221;-80
2021/07/30 08:37:52;;;;;;;15.70;6.07;;;;;;;;;;4353555;32;20253;-80
2021/07/30 08:40:17;;;;;;;16.48;6.57;;;;;;;;;;4353180;32;21071;-81
2021/07/30 08:42:43;;;;;;;21.90;6.97;;;;;;;;;;4353779;32;20260;-81
2021/07/30 08:45:09;;;;;;;18.85;6.25;;;;;;;;;;4354781;32;20619;-79
2021/07/30 08:47:35;;;;;;;18.95;6.57;;;;;;;;;;4353807;32;20269;-79
2021/07/30 08:50:01;;;;;;;20.12;7.03;;;;;;;;;;4355679;32;20253;-79
2021/07/30 08:52:40;;;;;;;20.37;6.53;;;;;;;;;;4357034;32;20626;-79
2021/07/30 08:55:06;;;;;;;14.65;6.05;;;;;;;;;;4360425;32;20246;-81
2021/07/30 08:57:32;;;;;;;24.55;6.87;;;;;;;;;;4360021;32;20227;-80
2021/07/30 09:00:07;;;;;;;17.70;6.80;;;;;;;;;;4359249;32;20282;-80
2021/07/30 09:02:33;;;;;;;17.45;6.72;;;;;;;;;;4359877;32;20540;-80
2021/07/30 09:04:58;;;;;;;14.80;5.80;;;;;;;;;;4360136;32;20194;-79
2021/07/30 09:07:38;;;;;;;19.33;6.55;;;;;;;;;;4380898;32;20686;-79
2021/07/30 09:10:03;;;;;;;21.08;6.78;;;;;;;;;;4374040;32;20233;-80
2021/07/30 09:12:31;;;;;;;19.33;7.57;;;;;;;;;;4373601;32;20590;-80
2021/07/30 09:14:56;;;;;;;22.48;7.93;;;;;;;;;;4374384;32;20240;-81
2021/07/30 09:17:38;;;;;;;13.00;6.15;;;;;;;;;;4374618;32;20226;-81
2021/07/30 09:20:04;;;;;;;16.50;5.72;;;;;;;;;;4374304;32;20182;-79
2021/07/30 09:22:50;;;;;;;18.95;6.25;;;;;;;;;;4373290;32;20658;-79
2021/07/30 09:25:36;;;;;;;24.35;6.05;;;;;;;;;;4373762;32;20658;-79
2021/07/30 09:28:07;;;;;;;15.25;6.53;;;;;;;;;;4374151;32;20225;-79
2021/07/30 09:30:33;;;;;;;19.73;5.75;;;;;;;;;;4373392;32;20186;-80
2021/07/30 09:32:59;;;;;;;15.43;5.95;;;;;;;;;;4359421;32;20631;-80
2021/07/30 09:35:25;;;;;;;17.73;6.07;;;;;;;;;;4359334;32;20233;-81
2021/07/30 09:38:16;;;;;;;19.73;6.12;;;;;;;;;;4358785;32;20237;-81
2021/07/30 09:40:42;;;;;;;16.55;6.15;;;;;;;;;;4359000;32;20229;-80
2021/07/30 09:43:25;;;;;;;19.58;6.22;;;;;;;;;;4358385;32;20313;-81
2021/07/30 09:46:09;;;;;;;14.82;5.22;;;;;;;;;;4358900;32;20230;-80
2021/07/30 09:48:47;;;;;;;11.57;6.03;;;;;;;;;;4359093;32;20302;-81
2021/07/30 09:51:14;;;;;;;21.25;7.18;;;;;;;;;;4358614;32;20419;-79
2021/07/30 09:53:40;;;;;;;25.50;6.68;;;;;;;;;;4358941;32;20260;-79
2021/07/30 09:56:06;;;;;;;24.37;6.75;;;;;;;;;;4359859;32;20624;-79
2021/07/30 09:58:31;;;;;;;23.35;6.90;;;;;;;;;;4358947;32;20659;-79
2021/07/30 10:00:56;;;;;;;14.98;5.65;;;;;;;;;;4360342;32;20334;-79
2021/07/30 10:03:22;;;;;;;13.13;5.32;;;;;;;;;;4359403;32;20529;-79
2021/07/30 10:05:51;;;;;;;23.35;6.78;;;;;;;;;;4361146;32;20320;-79
2021/07/30 10:08:16;;;;;;;14.87;5.25;;;;;;;;;;4386583;32;20246;-79
2021/07/30 10:10:43;;;;;;;12.52;5.45;;;;;;;;;;4374729;32;20692;-77
2021/07/30 10:13:14;;;;;;;16.15;5.80;;;;;;;;;;4374728;32;20562;-77
2021/07/30 10:15:43;;;;;;;17.67;6.22;;;;;;;;;;4374912;32;20190;-77
2021/07/30 10:18:11;;;;;;;21.12;5.28;;;;;;;;;;4376456;32;20223;-78
2021/07/30 10:20:38;;;;;;;17.87;4.62;;;;;;;;;;4380821;32;20202;-80
2021/07/30 10:23:07;;;;;;;22.13;6.22;;;;;;;;;;4390119;32;20279;-79
2021/07/30 10:25:41;;;;;;;20.02;5.65;;;;;;;;;;4382205;32;20271;-79
2021/07/30 10:28:17;;;;;;;14.40;5.20;;;;;;;;;;4376579;32;20305;-78
2021/07/30 10:31:05;;;;;;;20.05;5.25;;;;;;;;;;4376645;32;20209;-78
2021/07/30 10:33:30;;;;;;;19.95;4.97;;;;;;;;;;4346897;32;20672;-78
2021/07/30 10:35:57;;;;;;;16.80;5.35;;;;;;;;;;4346816;33;20214;-77
2021/07/30 10:38:24;;;;;;;12.95;4.82;;;;;;;;;;4346314;33;20677;-77
2021/07/30 10:40:59;;;;;;;17.55;5.53;;;;;;;;;;4355750;32;20644;-78
2021/07/30 10:43:28;;;;;;;19.10;5.62;;;;;;;;;;4361083;32;20251;-79
2021/07/30 10:46:07;;;;;;;16.48;4.85;;;;;;;;;;4361263;32;20198;-79
2021/07/30 10:48:34;;;;;;;17.37;5.03;;;;;;;;;;4361318;32;20314;-78
2021/07/30 10:51:01;;;;;;;20.50;5.35;;;;;;;;;;4361247;32;20584;-79
2021/07/30 10:53:39;;;;;;;14.75;5.25;;;;;;;;;;4361207;32;20593;-79
2021/07/30 10:56:26;;;;;;;13.10;5.25;;;;;;;;;;4360896;32;20198;-78
2021/07/30 10:58:55;;;;;;;14.60;5.45;;;;;;;;;;4360960;32;20234;-78
2021/07/30 11:01:24;;;;;;;17.02;5.25;;;;;;;;;;4361188;32;20439;-77
2021/07/30 11:03:52;;;;;;;24.63;5.90;;;;;;;;;;4360986;32;20222;-77
2021/07/30 11:06:25;;;;;;;26.12;6.68;;;;;;;;;;4363730;32;20707;-79
2021/07/30 11:11:47;;;;;;;18.92;4.72;;;;;;;;;;4375762;32;20292;-79
2021/07/30 11:14:12;;;;;;;11.25;4.68;;;;;;;;;;4376143;32;20209;-77
2021/07/30 11:16:44;;;;;;;20.45;5.93;;;;;;;;;;4376101;32;20245;-77
2021/07/30 11:19:11;;;;;;;24.58;5.20;;;;;;;;;;4376455;32;20580;-77
2021/07/30 11:21:37;;;;;;;15.10;5.62;;;;;;;;;;4376453;32;20226;-77
2021/07/30 11:24:04;;;;;;;16.73;6.30;;;;;;;;;;4376031;32;20298;-78
2021/07/30 11:26:30;;;;;;;20.00;5.18;;;;;;;;;;4375613;32;20395;-78
2021/07/30 11:28:58;;;;;;;20.70;5.80;;;;;;;;;;4374966;32;20214;-79
2021/07/30 11:31:25;;;;;;;15.68;5.78;;;;;;;;;;4370829;32;20199;-78
2021/07/30 11:33:52;;;;;;;18.05;6.00;;;;;;;;;;4360453;32;20308;-79
2021/07/30 11:36:18;;;;;;;14.73;5.37;;;;;;;;;;4360227;32;20308;-79
2021/07/30 11:38:54;;;;;;;13.93;4.12;;;;;;;;;;4360691;32;20381;-79
2021/07/30 11:41:21;;;;;;;15.27;3.95;;;;;;;;;;4360590;32;20571;-79
2021/07/30 11:43:56;;;;;;;13.30;4.37;;;;;;;;;;4360601;32;20310;-79
2021/07/30 11:46:22;;;;;;;11.00;3.87;;;;;;;;;;4360646;32;20231;-78
2021/07/30 11:48:47;;;;;;;17.77;3.87;;;;;;;;;;4360657;32;20305;-78
2021/07/30 11:51:13;;;;;;;15.60;4.32;;;;;;;;;;4360830;32;20252;-77
2021/07/30 11:53:39;;;;;;;10.35;4.35;;;;;;;;;;4360618;32;20659;-79
2021/07/30 11:56:04;;;;;;;20.08;5.72;;;;;;;;;;4359549;32;20331;-79
2021/07/30 11:58:30;;;;;;;19.10;4.55;;;;;;;;;;4360753;32;20643;-79
2021/07/30 12:01:10;;;;;;;17.42;4.97;;;;;;;;;;4359399;32;20264;-77
2021/07/30 12:03:36;;;;;;;23.30;6.00;;;;;;;;;;4360618;32;20235;-77
2021/07/30 12:06:02;;;;;;;16.23;4.25;;;;;;;;;;4360104;32;20214;-77
2021/07/30 12:08:36;;;;;;;10.13;5.05;;;;;;;;;;4360739;32;20313;-77
2021/07/30 12:11:02;;;;;;;11.05;4.30;;;;;;;;;;4360213;32;20396;-77
2021/07/30 12:13:29;;;;;;;15.00;4.68;;;;;;;;;;4360408;32;20714;-78
2021/07/30 12:15:55;;;;;;;15.48;5.55;;;;;;;;;;4359491;32;20260;-78
2021/07/30 12:18:20;;;;;;;15.57;4.62;;;;;;;;;;4359568;32;20223;-79
2021/07/30 12:20:47;;;;;;;10.05;4.65;;;;;;;;;;4359812;32;20280;-79
2021/07/30 12:23:17;;;;;;;7.15;3.67;;;;;;;;;;4361327;32;20234;-79
2021/07/30 12:25:53;;;;;;;12.18;3.47;;;;;;;;;;4360440;32;20651;-79
2021/07/30 12:28:21;;;;;;;9.18;3.40;;;;;;;;;;4360116;32;20237;-79
2021/07/30 12:30:52;;;;;;;9.00;4.15;;;;;;;;;;4359608;32;20648;-79
2021/07/30 12:33:30;;;;;;;24.98;4.05;;;;;;;;;;4359394;32;20301;-78
2021/07/30 12:36:07;;;;;;;9.90;4.28;;;;;;;;;;4356487;32;20206;-78
2021/07/30 12:38:33;;;;;;;12.73;3.97;;;;;;;;;;4358774;32;20287;-78
2021/07/30 12:41:16;;;;;;;13.15;4.60;;;;;;;;;;4359524;32;20214;-78
2021/07/30 12:43:44;;;;;;;8.48;3.97;;;;;;;;;;4358959;32;20249;-77
2021/07/30 12:46:11;;;;;;;13.13;3.75;;;;;;;;;;4359867;32;20276;-78
2021/07/30 12:48:47;;;;;;;12.43;4.35;;;;;;;;;;4360208;32;20823;-79
2021/07/30 12:51:26;;;;;;;15.15;3.90;;;;;;;;;;4359895;32;20194;-79
2021/07/30 12:54:12;;;;;;;5.75;3.30;;;;;;;;;;4358932;32;20243;-80
2021/07/30 12:57:07;;;;;;;21.25;4.07;;;;;;;;;;4359727;32;20210;-79
2021/07/30 12:59:49;;;;;;;10.70;4.32;;;;;;;;;;4351738;32;20226;-79
2021/07/30 13:03:28;;;;;;;13.20;4.75;;;;;;;;;;4488403;31;20263;-57
2021/07/30 13:05:56;;;;;;;14.48;4.43;;;;;;;;;;4477735;32;20393;-57
2021/07/30 13:08:25;;;;;;;18.60;5.32;;;;;;;;;;4477999;32;20672;-57
2021/07/30 13:10:51;;;;;;;11.93;4.95;;;;;;;;;;4477318;32;20238;-58
2021/07/30 13:13:18;;;;;;;15.93;4.28;;;;;;;;;;4477792;32;20208;-57
2021/07/30 13:15:44;;;;;;;12.88;4.37;;;;;;;;;;4478073;32;20255;-58
2021/07/30 13:18:10;;;;;;;11.00;4.32;;;;;;;;;;4476430;32;20232;-58
2021/07/30 13:20:35;;;;;;;14.73;4.57;;;;;;;;;;4477746;32;20317;-56
2021/07/30 13:23:01;;;;;;;15.35;4.30;;;;;;;;;;4477688;32;20400;-58
2021/07/30 13:25:28;;;;;;;12.93;5.35;;;;;;;;;;4477633;32;20338;-58
2021/07/30 13:27:53;;;;;;;21.42;5.47;;;;;;;;;;4476813;32;20223;-58
2021/07/30 13:30:19;;;;;;;18.73;5.53;;;;;;;;;;4477910;32;20635;-57
2021/07/30 13:32:46;;;;;;;16.40;4.47;;;;;;;;;;4464480;32;20239;-57
2021/07/30 13:35:11;;;;;;;9.07;4.55;;;;;;;;;;4461925;32;20276;-57
2021/07/30 13:37:37;;;;;;;13.30;4.57;;;;;;;;;;4462017;32;20295;-58
2021/07/30 13:40:03;;;;;;;19.85;5.10;;;;;;;;;;4461888;32;20363;-57
2021/07/30 13:42:28;;;;;;;15.90;4.32;;;;;;;;;;4461458;32;20704;-57
2021/07/30 13:44:54;;;;;;;11.38;4.57;;;;;;;;;;4461107;32;20734;-57
2021/07/30 13:47:21;;;;;;;8.70;3.78;;;;;;;;;;4461903;32;20534;-57
2021/07/30 13:49:46;;;;;;;14.20;4.45;;;;;;;;;;4461499;32;20267;-57
2021/07/30 13:52:12;;;;;;;14.35;5.25;;;;;;;;;;4460608;32;20232;-57
2021/07/30 13:54:39;;;;;;;19.40;4.70;;;;;;;;;;4461244;32;20335;-56
2021/07/30 13:57:08;;;;;;;15.70;4.47;;;;;;;;;;4461330;32;20604;-57
2021/07/30 13:59:37;;;;;;;13.13;4.82;;;;;;;;;;4459683;32;20360;-57
2021/07/30 14:02:04;;;;;;;14.38;4.57;;;;;;;;;;4460876;32;20268;-57
2021/07/30 14:04:36;;;;;;;18.00;4.45;;;;;;;;;;4459541;32;20292;-57
2021/07/30 14:07:06;;;;;;;12.35;4.57;;;;;;;;;;4461260;32;20256;-57
2021/07/30 14:09:38;;;;;;;12.13;4.60;;;;;;;;;;4460878;32;20200;-57
2021/07/30 14:12:05;;;;;;;25.55;5.55;;;;;;;;;;4461460;32;20246;-58
2021/07/30 14:14:32;;;;;;;15.52;4.97;;;;;;;;;;4451201;32;20298;-57
2021/07/30 14:16:58;;;;;;;14.38;4.32;;;;;;;;;;4451123;32;20221;-57
2021/07/30 14:19:23;;;;;;;14.50;4.80;;;;;;;;;;4450645;32;20212;-57
2021/07/30 14:21:49;;;;;;;10.98;4.87;;;;;;;;;;4450470;32;20578;-57
2021/07/30 14:24:14;;;;;;;11.15;5.15;;;;;;;;;;4450627;32;20555;-58
2021/07/30 14:26:40;;;;;;;16.50;4.45;;;;;;;;;;4450376;32;20235;-57
2021/07/30 14:29:06;;;;;;;17.92;4.78;;;;;;;;;;4450673;32;20208;-58
2021/07/30 14:31:31;;;;;;;15.85;5.10;;;;;;;;;;4455552;32;20246;-58
2021/07/30 14:33:57;;;;;;;16.77;4.65;;;;;;;;;;4466151;32;20216;-57
2021/07/30 14:36:22;;;;;;;11.52;3.75;;;;;;;;;;4466242;32;20208;-58